Portada
METAR-TAF:

METAR-TAF

Aeropuertos :

Aeropuerto Internacional Imán Jomeini

Teherán, Irán

latitud: 35-24-58N, longitud: 51-09-08E, altitud: 1007 m

Observación

El informe se hizo hace 43 minutos, a las 19:00 UTC
Viento calma
Temperatura 3°C
Humedad 52%
Presión 1023 hPa
Visibilidad 10 km o más
sin nubes por debajo de 1500 m y sin presencia de cumulonimbus.

METAR: OIIE 201900Z 00000KT CAVOK 03/M06 Q1023

Hora: 23:13 (19:43 UTC)

Pronóstico

El informe se hizo hace 2 horas y 13 minutos, a las 17:30 UTC
Pronóstico válido del 20 a las 18 UTC al 21 a las 24 UTC
Viento 8 kt del noroeste
Visibilidad: 8000 m
Temporalmente
del 21 a las 07 UTC al 21 a las 12 UTC
Viento 14 kt del sur-suroeste

TAF: OIIE 201730Z 2018/2124 32008KT 8000 NSC TEMPO 2107/2112 20014KT

Observaciones y pronósticos meteorológicos de más de 4000 aeropuertos (mensajes METAR y TAF).

Los puntos amarillos y rojos representan las estaciones disponibles.

Ponga el ratón en el punto deseado para ver el nombre de la estación.

Haga clic para ver las observaciones y los pronósticos meteorológicos.

Para cambiar el mapa : haga clic en los botones verdes con una cruz de color negro para hacer un zoom, en el botón verde con un guión para alejar o en las flechas verdes para mapas adyacentes.


METAR-TAF: